Latest Coastal Weather Observations for Hindmarsh Island

IDS60701

Issued at 1:32 am CDT Wednesday 18 January 2017 (issued every 10 minutes, with the page automatically refreshed every 10 minutes)

About coastal observations | Map of coastal stations | Coastal observations for SA | Marine services | Other Formats
Station Details ID: 023894 Name: HINDMARSH ISLAND AWS Lat: -35.52 Lon: 138.82 Height: 11.0 m
Data from the previous 72 hours. | See also: Recent months at Hindmarsh Island
Date/Time
CDT
Temp
°C
Wind Pressure Rain since
9am
mm
Weather Cloud Vis
km
Sea
Height
m
Swell
Dir  Spd
kts
Gust
kts
hPa Trend Height
m
Period
s
Dir
18/01:30am 18.8 S 15 18 1011.8 - 0.0 - - - - - - -
18/01:00am 19.0 SSE 14 17 1011.9 - 0.0 - - - - - - -
18/12:30am 18.9 S 14 17 1012.0 - 0.0 - - - - - - -
18/12:00am 19.0 S 13 16 1012.1 - 0.0 - - - - - - -
 
Date/Time
CDT
Temp
°C
Wind Pressure Rain since
9am
mm
Weather Cloud Vis
km
Sea
Height
m
Swell
Dir  Spd
kts
Gust
kts
hPa Trend Height
m
Period
s
Dir
17/11:30pm 19.0 S 12 15 1012.4 - 0.0 - - - - - - -
17/11:00pm 19.0 SSE 12 15 1012.4 - 0.0 - - - - - - -
17/10:30pm 18.9 SSE 13 14 1012.4 - 0.0 - - - - - - -
17/10:00pm 19.1 SSE 17 21 1012.3 - 0.0 - - - - - - -
17/09:30pm 19.4 S 22 27 1012.1 - 0.0 - - - - - - -
17/09:00pm 19.8 S 26 31 1011.8 - 0.0 - - - - - - -
17/08:30pm 20.4 S 25 29 1011.5 - 0.0 - - - - - - -
17/08:00pm 20.8 SSW 29 33 1010.6 - 0.0 - - - - - - -
17/07:30pm 22.2 SSW 22 29 1009.7 - 0.0 - - - - - - -
17/07:00pm 23.4 SSW 20 24 1008.7 - 0.0 - - - - - - -
17/06:30pm 25.1 SSW 20 25 1007.5 - 0.0 - - - - - - -
17/06:00pm 26.9 SSW 17 19 1006.4 - 0.0 - - - - - - -
17/05:30pm 28.2 SSW 14 17 1005.8 - 0.0 - - - - - - -
17/05:00pm 30.3 S 8 11 1005.5 - 0.0 - - - - - - -
17/04:30pm 29.8 SSE 7 9 1005.5 - 0.0 - - - - - - -
17/04:00pm 30.1 S 13 21 1005.6 - 0.0 - - - - - - -
17/03:30pm 31.3 S 13 20 1005.3 - 0.0 - - - - - - -
17/03:00pm 33.0 SSW 13 17 1005.3 - 0.0 - - - - - - -
17/02:42pm 34.7 SSW 9 14 1005.2 - 0.0 - - - - - - -
17/02:30pm 39.7 WNW 17 24 1005.2 - 0.0 - - - - - - -
17/02:00pm 39.2 NW 16 24 1005.2 - 0.0 - - - - - - -
17/01:30pm 39.0 WNW 17 26 1005.3 - 0.0 - - - - - - -
17/01:09pm 39.1 WSW 12 26 1005.5 - 0.0 - - - - - - -
17/01:00pm 36.7 SW 8 11 1005.9 - 0.0 - - - - - - -
17/12:30pm 34.5 SSW 10 17 1006.2 - 0.0 - - - - - - -
17/12:00pm 34.6 WSW 13 25 1006.3 - 0.0 - - - - - - -
17/11:57am 36.2 W 15 25 1006.5 - 0.0 - - - - - - -
17/11:46am 37.9 W 11 24 1006.3 - 0.0 - - - - - - -
17/11:30am 35.6 SSW 8 11 1006.4 - 0.0 - - - - - - -
17/11:00am 33.7 SSW 7 11 1006.6 - 0.0 - - - - - - -
17/10:30am 33.6 WNW 2 5 1006.6 - 0.0 - - - - - - -
17/10:00am 32.0 NNE 5 7 1006.7 - 0.0 - - - - - - -
17/09:30am 30.2 N 4 6 1006.8 - 0.0 - - - - - - -
17/09:00am 28.1 ENE 5 7 1007.0 - 0.0 - - - - - - -
17/08:30am 24.7 N 5 6 1007.2 - 0.0 - - - - - - -
17/08:00am 23.0 N 6 7 1007.2 - 0.0 - - - - - - -
17/07:30am 21.8 NNE 5 7 1007.2 - 0.0 - - - - - - -
17/07:00am 21.8 WSW 2 4 1007.2 - 0.0 - - - - - - -
17/06:30am 21.2 N 8 10 1007.0 - 0.0 - - - - - - -
17/06:00am 20.4 N 9 11 1006.8 - 0.0 - - - - - - -
17/05:30am 20.7 N 10 11 1006.8 - 0.0 - - - - - - -
17/05:00am 21.0 N 10 11 1006.6 - 0.0 - - - - - - -
17/04:30am 20.6 N 7 9 1006.8 - 0.0 - - - - - - -
17/04:00am 18.7 ENE 4 5 1006.9 - 0.0 - - - - - - -
17/03:30am 19.0 ESE 2 5 1007.2 - 0.0 - - - - - - -
17/03:00am 21.4 W 5 5 1007.5 - 0.0 - - - - - - -
17/02:30am 22.5 N 6 7 1007.5 - 0.0 - - - - - - -
17/02:00am 22.6 N 8 9 1007.7 - 0.0 - - - - - - -
17/01:30am 21.2 N 6 7 1008.1 - 0.0 - - - - - - -
17/01:00am 21.6 N 5 7 1008.5 - 0.0 - - - - - - -
17/12:30am 21.8 N 5 7 1008.8 - 0.0 - - - - - - -
17/12:00am 21.9 N 6 7 1009.0 - 0.0 - - - - - - -
 
Date/Time
CDT
Temp
°C
Wind Pressure Rain since
9am
mm
Weather Cloud Vis
km
Sea
Height
m
Swell
Dir  Spd
kts
Gust
kts
hPa Trend Height
m
Period
s
Dir
16/11:30pm 20.6 N 5 7 1009.1 - 0.0 - - - - - - -
16/11:00pm 22.2 NW 4 5 1009.2 - 0.0 - - - - - - -
16/10:30pm 23.4 WNW 5 5 1009.4 - 0.0 - - - - - - -
16/10:00pm 24.3 WNW 4 5 1009.3 - 0.0 - - - - - - -
16/09:30pm 25.2 CALM 0 0 1009.1 - 0.0 - - - - - - -
16/09:00pm 25.7 ESE 3 5 1009.1 - 0.0 - - - - - - -
16/08:30pm 26.5 ESE 6 7 1009.0 - 0.0 - - - - - - -
16/08:00pm 28.0 ESE 6 7 1008.9 - 0.0 - - - - - - -
16/07:30pm 30.2 ESE 5 6 1009.0 - 0.0 - - - - - - -
16/07:00pm 28.9 ESE 8 9 1009.0 - 0.0 - - - - - - -
16/06:30pm 30.6 SE 9 10 1009.0 - 0.0 - - - - - - -
16/06:00pm 30.8 SE 9 11 1009.2 - 0.0 - - - - - - -
16/05:30pm 30.8 SE 9 11 1009.3 - 0.0 - - - - - - -
16/05:00pm 31.3 SSE 11 13 1009.4 - 0.0 - - - - - - -
16/04:30pm 31.4 SSE 11 13 1009.7 - 0.0 - - - - - - -
16/04:00pm 32.0 SSE 12 14 1009.8 - 0.0 - - - - - - -
16/03:30pm 32.6 S 7 11 1009.9 - 0.0 - - - - - - -
16/03:00pm 33.0 S 7 9 1010.1 - 0.0 - - - - - - -
16/02:30pm 32.9 SSW 7 9 1010.4 - 0.0 - - - - - - -
16/02:00pm 33.1 SSW 6 8 1010.6 - 0.0 - - - - - - -
16/01:30pm 31.9 S 9 11 1011.0 - 0.0 - - - - - - -
16/01:00pm 32.0 S 4 7 1011.5 - 0.0 - - - - - - -
16/12:30pm 30.1 SE 6 11 1011.8 - 0.0 - - - - - - -
16/12:00pm 31.1 N 7 9 1012.0 - 0.0 - - - - - - -
16/11:30am 29.5 NE 7 9 1012.3 - 0.0 - - - - - - -
16/11:00am 27.2 N 8 11 1012.7 - 0.0 - - - - - - -
16/10:30am 25.9 NNE 12 15 1012.8 - 0.0 - - - - - - -
16/10:00am 24.0 NNE 11 15 1013.1 - 0.0 - - - - - - -
16/09:30am 22.1 NNE 10 14 1013.4 - 0.0 - - - - - - -
16/09:00am 20.2 NE 11 13 1013.8 - 0.0 - - - - - - -
16/08:30am 18.7 NNE 10 13 1013.8 - 0.0 - - - - - - -
16/08:00am 17.2 NNE 9 11 1013.9 - 0.0 - - - - - - -
16/07:30am 15.9 N 8 11 1013.8 - 0.0 - - - - - - -
16/07:00am 14.8 N 7 9 1013.9 - 0.0 - - - - - - -
16/06:30am 14.1 N 7 8 1013.7 - 0.0 - - - - - - -
16/06:00am 13.6 N 5 6 1013.7 - 0.0 - - - - - - -
16/05:30am 14.0 N 5 7 1013.8 - 0.0 - - - - - - -
16/05:00am 14.2 N 6 8 1013.7 - 0.0 - - - - - - -
16/04:30am 14.1 N 5 6 1013.8 - 0.0 - - - - - - -
16/04:00am 14.4 N 5 6 1013.9 - 0.0 - - - - - - -
16/03:30am 14.4 N 5 6 1014.1 - 0.0 - - - - - - -
16/03:00am 14.7 N 5 6 1014.2 - 0.0 - - - - - - -
16/02:30am 14.6 N 5 7 1014.2 - 0.0 - - - - - - -
16/02:00am 14.9 N 6 7 1014.6 - 0.0 - - - - - - -
16/01:30am 15.0 NNW 4 5 1014.9 - 0.0 - - - - - - -
16/01:00am 15.3 N 5 6 1015.0 - 0.0 - - - - - - -
16/12:30am 15.7 NE 5 5 1015.4 - 0.0 - - - - - - -
16/12:00am 15.7 NE 4 5 1015.6 - 0.0 - - - - - - -
 
Date/Time
CDT
Temp
°C
Wind Pressure Rain since
9am
mm
Weather Cloud Vis
km
Sea
Height
m
Swell
Dir  Spd
kts
Gust
kts
hPa Trend Height
m
Period
s
Dir
15/11:30pm 15.5 E 5 6 1015.7 - 0.0 - - - - - - -
15/11:00pm 16.9 SE 8 10 1015.9 - 0.0 - - - - - - -
15/10:30pm 17.1 SE 9 11 1016.2 - 0.0 - - - - - - -
15/10:00pm 17.1 SE 9 11 1016.5 - 0.0 - - - - - - -
15/09:30pm 17.2 SE 9 11 1016.8 - 0.0 - - - - - - -
15/09:00pm 17.4 SSE 10 13 1016.6 - 0.0 - - - - - - -
15/08:30pm 17.8 SSE 12 14 1016.6 - 0.0 - - - - - - -
15/08:00pm 18.3 SSE 12 14 1016.6 - 0.0 - - - - - - -
15/07:30pm 18.8 SSE 11 13 1016.6 - 0.0 - - - - - - -
15/07:00pm 19.3 SSE 12 15 1016.6 - 0.0 - - - - - - -
15/06:30pm 19.7 S 12 15 1016.6 - 0.0 - - - - - - -
15/06:00pm 19.8 SSE 12 15 1016.8 - 0.0 - - - - - - -
15/05:30pm 20.3 S 12 15 1016.9 - 0.0 - - - - - - -
15/05:00pm 20.7 SSE 13 16 1017.2 - 0.0 - - - - - - -
15/04:30pm 21.2 SSE 13 16 1017.5 - 0.0 - - - - - - -
15/04:00pm 21.3 S 12 15 1017.8 - 0.0 - - - - - - -
15/03:30pm 22.0 S 12 16 1018.0 - 0.0 - - - - - - -
15/03:00pm 21.4 SSE 12 15 1018.3 - 0.0 - - - - - - -
15/02:30pm 21.2 SSE 12 15 1018.3 - 0.0 - - - - - - -
15/02:00pm 20.9 S 12 14 1018.6 - 0.0 - - - - - - -
15/01:30pm 21.1 SSE 11 14 1018.8 - 0.0 - - - - - - -
15/01:00pm 20.8 S 12 15 1019.1 - 0.0 - - - - - - -
15/12:30pm 21.1 S 10 13 1019.4 - 0.0 - - - - - - -
15/12:00pm 20.8 S 9 12 1019.7 - 0.0 - - - - - - -
15/11:30am 20.1 S 8 11 1019.9 - 0.0 - - - - - - -
15/11:00am 19.2 S 7 10 1020.2 - 0.0 - - - - - - -
15/10:30am 19.4 SSW 5 7 1020.3 - 0.0 - - - - - - -
15/10:00am 18.8 S 5 7 1020.4 - 0.0 - - - - - - -
15/09:30am 18.5 SSE 5 6 1020.4 - 0.0 - - - - - - -
15/09:00am 18.3 ESE 6 9 1020.4 - 0.0 - - - - - - -
15/08:30am 18.0 E 6 9 1020.0 - 0.0 - - - - - - -
15/08:00am 17.4 NE 7 9 1019.8 - 0.0 - - - - - - -
15/07:30am 17.0 E 6 7 1019.7 - 0.0 - - - - - - -
15/07:00am 16.7 NE 4 5 1019.3 - 0.0 - - - - - - -
15/06:30am 16.4 NE 3 5 1019.1 - 0.0 - - - - - - -
15/06:00am 16.5 ESE 6 8 1018.7 - 0.0 - - - - - - -
15/05:30am 16.8 SE 10 14 1018.4 - 0.0 - - - - - - -
15/05:00am 16.8 SE 8 10 1018.3 - 0.0 - - - - - - -
15/04:30am 16.8 SSE 9 11 1018.1 - 0.0 - - - - - - -
15/04:00am 16.8 SSE 9 13 1017.8 - 0.0 - - - - - - -
15/03:30am 17.0 SSE 9 15 1017.8 - 0.0 - - - - - - -
15/03:00am 16.8 SSE 8 10 1017.9 - 0.0 - - - - - - -
15/02:30am 17.0 SSE 9 12 1017.9 - 0.0 - - - - - - -
15/02:00am 17.0 SE 11 14 1018.2 - 0.0 - - - - - - -

Other Formats:

Comma delimited format used in spreadsheet applications
http://www.bom.gov.au/fwo/IDS60701/IDS60701.94677.axf

JavaScript Object Notation format (JSON) in row-major order
http://www.bom.gov.au/fwo/IDS60701/IDS60701.94677.json